Torbay, Canada
Current Conditions -  °F | °C
As of 3:00 PM on Friday 24 Oct 2014 (Local Time) from CYYT Reporting Station
Light Rain Light Rain  
Wind Chill: 50°   Ceiling: 100
Heat Index: 50°   Visibility: 0.25mi
Dew Point: 50°   Wind: 13mph
Humidity: 100%   Direction: 80°E
Pressure: 29.82"   Gusts: 20mph
Location:  47.66°N, 52.73°W
Report Text: CYYT 241700Z 08011G17KT 1/4SM R11/2600V5500FT/U -RA FG VV001 10/10 A2982 RMK FG8 SLP102
Loading
Personal Weather Stations






























Interactive Weather Map
Tropical Storm Tracking
New forecast layout! Learn more

10-Day Weather Forecast

Advertisements
Track Severe Weather on mobile